sensor_id;sensor_type;location;lat;lon;timestamp;P1;durP1;ratioP1;P2;durP2;ratioP2
20523;SDS011;10420;48.542;12.270;2023-02-15T00:04:35;76.70;;;18.57;;
20523;SDS011;10420;48.542;12.270;2023-02-15T00:09:48;71.20;;;17.30;;
20523;SDS011;10420;48.542;12.270;2023-02-15T00:14:49;80.23;;;17.27;;
20523;SDS011;10420;48.542;12.270;2023-02-15T00:19:50;79.67;;;17.87;;
20523;SDS011;10420;48.542;12.270;2023-02-15T00:24:50;74.57;;;17.37;;
20523;SDS011;10420;48.542;12.270;2023-02-15T00:29:51;53.63;;;15.63;;
20523;SDS011;10420;48.542;12.270;2023-02-15T00:34:51;64.23;;;16.27;;
20523;SDS011;10420;48.542;12.270;2023-02-15T00:39:52;64.63;;;15.13;;
20523;SDS011;10420;48.542;12.270;2023-02-15T00:44:53;58.07;;;14.67;;
20523;SDS011;10420;48.542;12.270;2023-02-15T00:49:53;75.80;;;15.27;;
20523;SDS011;10420;48.542;12.270;2023-02-15T00:54:54;57.27;;;15.17;;
20523;SDS011;10420;48.542;12.270;2023-02-15T00:59:54;66.33;;;14.93;;
20523;SDS011;10420;48.542;12.270;2023-02-15T01:04:55;60.43;;;14.37;;
20523;SDS011;10420;48.542;12.270;2023-02-15T01:09:56;74.37;;;14.53;;
20523;SDS011;10420;48.542;12.270;2023-02-15T01:14:56;67.43;;;12.80;;
20523;SDS011;10420;48.542;12.270;2023-02-15T01:19:57;115.90;;;15.87;;
20523;SDS011;10420;48.542;12.270;2023-02-15T01:24:57;47.43;;;16.63;;
20523;SDS011;10420;48.542;12.270;2023-02-15T01:29:58;54.43;;;15.87;;
20523;SDS011;10420;48.542;12.270;2023-02-15T01:34:59;54.17;;;15.20;;
20523;SDS011;10420;48.542;12.270;2023-02-15T01:40:00;76.27;;;14.93;;
20523;SDS011;10420;48.542;12.270;2023-02-15T01:50:37;51.77;;;16.13;;
20523;SDS011;10420;48.542;12.270;2023-02-15T01:55:45;80.53;;;15.47;;
20523;SDS011;10420;48.542;12.270;2023-02-15T02:00:58;85.27;;;14.40;;
20523;SDS011;10420;48.542;12.270;2023-02-15T02:06:00;65.70;;;14.20;;
20523;SDS011;10420;48.542;12.270;2023-02-15T02:11:01;86.27;;;15.30;;
20523;SDS011;10420;48.542;12.270;2023-02-15T02:21:24;51.63;;;16.33;;
20523;SDS011;10420;48.542;12.270;2023-02-15T02:32:00;68.10;;;16.07;;
20523;SDS011;10420;48.542;12.270;2023-02-15T02:37:30;36.87;;;14.60;;
20523;SDS011;10420;48.542;12.270;2023-02-15T02:42:49;55.47;;;14.20;;
20523;SDS011;10420;48.542;12.270;2023-02-15T02:48:00;72.17;;;14.97;;
20523;SDS011;10420;48.542;12.270;2023-02-15T02:53:09;48.10;;;15.03;;
20523;SDS011;10420;48.542;12.270;2023-02-15T02:58:18;55.80;;;14.53;;
20523;SDS011;10420;48.542;12.270;2023-02-15T03:03:43;46.87;;;14.03;;
20523;SDS011;10420;48.542;12.270;2023-02-15T03:08:53;54.63;;;15.03;;
20523;SDS011;10420;48.542;12.270;2023-02-15T03:13:58;81.30;;;15.30;;
20523;SDS011;10420;48.542;12.270;2023-02-15T03:19:03;72.17;;;16.10;;
20523;SDS011;10420;48.542;12.270;2023-02-15T03:24:10;54.27;;;14.90;;
20523;SDS011;10420;48.542;12.270;2023-02-15T03:29:13;43.57;;;14.73;;
20523;SDS011;10420;48.542;12.270;2023-02-15T03:34:16;42.57;;;13.97;;
20523;SDS011;10420;48.542;12.270;2023-02-15T03:44:33;43.07;;;15.77;;
20523;SDS011;10420;48.542;12.270;2023-02-15T03:49:47;41.80;;;15.90;;
20523;SDS011;10420;48.542;12.270;2023-02-15T03:54:53;48.37;;;15.00;;
20523;SDS011;10420;48.542;12.270;2023-02-15T03:59:54;65.87;;;15.33;;
20523;SDS011;10420;48.542;12.270;2023-02-15T04:05:13;38.83;;;15.47;;
20523;SDS011;10420;48.542;12.270;2023-02-15T04:10:14;50.90;;;15.10;;
20523;SDS011;10420;48.542;12.270;2023-02-15T04:15:33;35.23;;;15.20;;
20523;SDS011;10420;48.542;12.270;2023-02-15T04:20:53;41.77;;;14.83;;
20523;SDS011;10420;48.542;12.270;2023-02-15T04:26:12;33.63;;;14.13;;
20523;SDS011;10420;48.542;12.270;2023-02-15T04:31:33;42.70;;;15.27;;
20523;SDS011;10420;48.542;12.270;2023-02-15T04:36:33;44.47;;;15.13;;
20523;SDS011;10420;48.542;12.270;2023-02-15T04:41:34;36.77;;;15.83;;
20523;SDS011;10420;48.542;12.270;2023-02-15T04:46:35;42.63;;;14.93;;
20523;SDS011;10420;48.542;12.270;2023-02-15T04:51:36;42.50;;;14.33;;
20523;SDS011;10420;48.542;12.270;2023-02-15T04:56:37;40.43;;;15.37;;
20523;SDS011;10420;48.542;12.270;2023-02-15T05:01:38;40.90;;;16.00;;
20523;SDS011;10420;48.542;12.270;2023-02-15T05:06:39;40.10;;;16.73;;
20523;SDS011;10420;48.542;12.270;2023-02-15T05:11:40;62.90;;;23.33;;
20523;SDS011;10420;48.542;12.270;2023-02-15T05:16:40;37.70;;;15.97;;
20523;SDS011;10420;48.542;12.270;2023-02-15T05:21:41;39.73;;;15.10;;
20523;SDS011;10420;48.542;12.270;2023-02-15T05:26:41;38.10;;;15.53;;
20523;SDS011;10420;48.542;12.270;2023-02-15T05:32:01;42.57;;;15.70;;
20523;SDS011;10420;48.542;12.270;2023-02-15T05:37:02;48.33;;;16.73;;
20523;SDS011;10420;48.542;12.270;2023-02-15T05:42:03;41.27;;;15.37;;
20523;SDS011;10420;48.542;12.270;2023-02-15T05:47:04;50.77;;;15.17;;
20523;SDS011;10420;48.542;12.270;2023-02-15T05:52:07;44.13;;;16.10;;
20523;SDS011;10420;48.542;12.270;2023-02-15T05:57:08;50.70;;;16.73;;
20523;SDS011;10420;48.542;12.270;2023-02-15T06:02:08;55.27;;;21.43;;
20523;SDS011;10420;48.542;12.270;2023-02-15T06:07:09;47.63;;;19.30;;
20523;SDS011;10420;48.542;12.270;2023-02-15T06:12:10;63.37;;;14.50;;
20523;SDS011;10420;48.542;12.270;2023-02-15T06:17:10;45.60;;;15.40;;
20523;SDS011;10420;48.542;12.270;2023-02-15T06:22:11;39.53;;;16.00;;
20523;SDS011;10420;48.542;12.270;2023-02-15T06:27:14;42.47;;;16.83;;
20523;SDS011;10420;48.542;12.270;2023-02-15T06:32:14;52.87;;;16.73;;
20523;SDS011;10420;48.542;12.270;2023-02-15T06:37:15;38.70;;;16.53;;
20523;SDS011;10420;48.542;12.270;2023-02-15T06:42:15;49.13;;;17.40;;
20523;SDS011;10420;48.542;12.270;2023-02-15T06:47:17;44.23;;;15.97;;
20523;SDS011;10420;48.542;12.270;2023-02-15T06:52:18;40.93;;;17.17;;
20523;SDS011;10420;48.542;12.270;2023-02-15T06:57:19;53.50;;;22.20;;
20523;SDS011;10420;48.542;12.270;2023-02-15T07:02:19;44.70;;;17.60;;
20523;SDS011;10420;48.542;12.270;2023-02-15T07:07:20;36.33;;;15.87;;
20523;SDS011;10420;48.542;12.270;2023-02-15T07:12:21;38.57;;;15.67;;
20523;SDS011;10420;48.542;12.270;2023-02-15T07:17:41;41.33;;;16.37;;
20523;SDS011;10420;48.542;12.270;2023-02-15T07:22:42;54.90;;;14.93;;
20523;SDS011;10420;48.542;12.270;2023-02-15T07:27:43;42.53;;;16.07;;
20523;SDS011;10420;48.542;12.270;2023-02-15T07:32:45;44.63;;;16.83;;
20523;SDS011;10420;48.542;12.270;2023-02-15T07:38:04;41.27;;;16.40;;
20523;SDS011;10420;48.542;12.270;2023-02-15T07:43:04;45.80;;;14.00;;
20523;SDS011;10420;48.542;12.270;2023-02-15T07:48:05;52.47;;;15.77;;
20523;SDS011;10420;48.542;12.270;2023-02-15T07:53:06;34.43;;;14.47;;
20523;SDS011;10420;48.542;12.270;2023-02-15T07:58:06;40.13;;;14.83;;
20523;SDS011;10420;48.542;12.270;2023-02-15T08:03:07;41.30;;;16.43;;
20523;SDS011;10420;48.542;12.270;2023-02-15T08:08:13;57.13;;;19.93;;
20523;SDS011;10420;48.542;12.270;2023-02-15T08:13:29;50.13;;;17.37;;
20523;SDS011;10420;48.542;12.270;2023-02-15T08:18:30;39.97;;;16.23;;
20523;SDS011;10420;48.542;12.270;2023-02-15T08:23:30;42.90;;;16.47;;
20523;SDS011;10420;48.542;12.270;2023-02-15T08:28:31;61.50;;;16.03;;
20523;SDS011;10420;48.542;12.270;2023-02-15T08:33:32;49.23;;;16.37;;
20523;SDS011;10420;48.542;12.270;2023-02-15T08:38:33;35.30;;;14.83;;
20523;SDS011;10420;48.542;12.270;2023-02-15T08:43:34;47.93;;;15.70;;
20523;SDS011;10420;48.542;12.270;2023-02-15T08:48:35;45.10;;;15.10;;
20523;SDS011;10420;48.542;12.270;2023-02-15T08:53:35;40.63;;;16.30;;
20523;SDS011;10420;48.542;12.270;2023-02-15T08:58:40;45.73;;;16.87;;
20523;SDS011;10420;48.542;12.270;2023-02-15T09:03:41;38.07;;;15.30;;
20523;SDS011;10420;48.542;12.270;2023-02-15T09:08:41;41.27;;;15.00;;
20523;SDS011;10420;48.542;12.270;2023-02-15T09:13:42;43.30;;;14.87;;
20523;SDS011;10420;48.542;12.270;2023-02-15T09:18:44;40.73;;;15.43;;
20523;SDS011;10420;48.542;12.270;2023-02-15T09:23:46;53.70;;;15.77;;
20523;SDS011;10420;48.542;12.270;2023-02-15T09:28:50;42.07;;;16.00;;
20523;SDS011;10420;48.542;12.270;2023-02-15T09:33:52;44.83;;;17.43;;
20523;SDS011;10420;48.542;12.270;2023-02-15T09:38:55;37.30;;;15.00;;
20523;SDS011;10420;48.542;12.270;2023-02-15T09:49:10;38.77;;;15.83;;
20523;SDS011;10420;48.542;12.270;2023-02-15T09:54:32;37.97;;;16.33;;
20523;SDS011;10420;48.542;12.270;2023-02-15T09:59:42;48.20;;;16.90;;
20523;SDS011;10420;48.542;12.270;2023-02-15T10:20:54;43.47;;;17.70;;
20523;SDS011;10420;48.542;12.270;2023-02-15T10:31:34;38.90;;;15.83;;
20523;SDS011;10420;48.542;12.270;2023-02-15T10:36:53;39.33;;;18.60;;
20523;SDS011;10420;48.542;12.270;2023-02-15T11:08:24;39.57;;;17.67;;
20523;SDS011;10420;48.542;12.270;2023-02-15T11:13:26;44.03;;;18.03;;
20523;SDS011;10420;48.542;12.270;2023-02-15T11:23:42;42.50;;;18.13;;
20523;SDS011;10420;48.542;12.270;2023-02-15T11:28:55;49.70;;;19.37;;
20523;SDS011;10420;48.542;12.270;2023-02-15T11:34:02;46.40;;;18.47;;
20523;SDS011;10420;48.542;12.270;2023-02-15T11:39:10;41.77;;;17.73;;
20523;SDS011;10420;48.542;12.270;2023-02-15T11:44:15;49.87;;;20.07;;
20523;SDS011;10420;48.542;12.270;2023-02-15T11:49:41;47.93;;;19.67;;
20523;SDS011;10420;48.542;12.270;2023-02-15T11:54:45;46.57;;;18.80;;
20523;SDS011;10420;48.542;12.270;2023-02-15T11:59:58;47.70;;;19.70;;
20523;SDS011;10420;48.542;12.270;2023-02-15T12:05:15;47.77;;;19.80;;
20523;SDS011;10420;48.542;12.270;2023-02-15T12:10:32;48.70;;;19.97;;
20523;SDS011;10420;48.542;12.270;2023-02-15T12:15:36;48.87;;;20.67;;
20523;SDS011;10420;48.542;12.270;2023-02-15T12:20:38;47.47;;;20.13;;
20523;SDS011;10420;48.542;12.270;2023-02-15T12:25:42;49.57;;;21.47;;
20523;SDS011;10420;48.542;12.270;2023-02-15T12:30:54;50.37;;;21.60;;
20523;SDS011;10420;48.542;12.270;2023-02-15T12:35:58;51.83;;;21.17;;
20523;SDS011;10420;48.542;12.270;2023-02-15T12:41:22;56.27;;;22.50;;
20523;SDS011;10420;48.542;12.270;2023-02-15T12:46:25;55.90;;;23.13;;
20523;SDS011;10420;48.542;12.270;2023-02-15T12:51:27;64.37;;;23.67;;
20523;SDS011;10420;48.542;12.270;2023-02-15T12:56:27;61.03;;;24.27;;
20523;SDS011;10420;48.542;12.270;2023-02-15T13:01:28;61.80;;;24.30;;
20523;SDS011;10420;48.542;12.270;2023-02-15T13:06:33;58.23;;;23.67;;
20523;SDS011;10420;48.542;12.270;2023-02-15T13:11:36;59.40;;;24.13;;
20523;SDS011;10420;48.542;12.270;2023-02-15T13:16:38;53.70;;;22.60;;
20523;SDS011;10420;48.542;12.270;2023-02-15T13:21:40;57.07;;;23.80;;
20523;SDS011;10420;48.542;12.270;2023-02-15T13:26:44;53.90;;;23.50;;
20523;SDS011;10420;48.542;12.270;2023-02-15T13:31:47;57.77;;;23.87;;
20523;SDS011;10420;48.542;12.270;2023-02-15T13:36:51;56.30;;;24.07;;
20523;SDS011;10420;48.542;12.270;2023-02-15T13:42:20;62.03;;;24.97;;
20523;SDS011;10420;48.542;12.270;2023-02-15T13:47:27;61.20;;;23.57;;
20523;SDS011;10420;48.542;12.270;2023-02-15T13:52:36;59.37;;;27.57;;
20523;SDS011;10420;48.542;12.270;2023-02-15T13:57:46;55.03;;;23.83;;
20523;SDS011;10420;48.542;12.270;2023-02-15T14:08:31;54.40;;;23.27;;
20523;SDS011;10420;48.542;12.270;2023-02-15T14:18:55;53.00;;;22.30;;
20523;SDS011;10420;48.542;12.270;2023-02-15T14:34:45;51.40;;;21.53;;
20523;SDS011;10420;48.542;12.270;2023-02-15T14:40:03;103.70;;;40.47;;
20523;SDS011;10420;48.542;12.270;2023-02-15T14:45:36;64.20;;;25.57;;
20523;SDS011;10420;48.542;12.270;2023-02-15T14:50:53;64.03;;;25.37;;
20523;SDS011;10420;48.542;12.270;2023-02-15T15:01:14;88.27;;;34.43;;
20523;SDS011;10420;48.542;12.270;2023-02-15T15:06:29;61.43;;;24.43;;
20523;SDS011;10420;48.542;12.270;2023-02-15T15:11:42;54.43;;;23.57;;
20523;SDS011;10420;48.542;12.270;2023-02-15T15:16:49;61.47;;;25.53;;
20523;SDS011;10420;48.542;12.270;2023-02-15T15:21:54;62.73;;;25.07;;
20523;SDS011;10420;48.542;12.270;2023-02-15T15:32:35;62.60;;;25.20;;
20523;SDS011;10420;48.542;12.270;2023-02-15T15:49:05;83.93;;;26.53;;
20523;SDS011;10420;48.542;12.270;2023-02-15T15:54:17;96.03;;;25.03;;
20523;SDS011;10420;48.542;12.270;2023-02-15T15:59:27;71.53;;;27.07;;
20523;SDS011;10420;48.542;12.270;2023-02-15T16:04:31;99.23;;;27.20;;
20523;SDS011;10420;48.542;12.270;2023-02-15T16:09:34;72.40;;;26.90;;
20523;SDS011;10420;48.542;12.270;2023-02-15T16:14:35;91.27;;;30.73;;
20523;SDS011;10420;48.542;12.270;2023-02-15T16:19:38;83.53;;;26.03;;
20523;SDS011;10420;48.542;12.270;2023-02-15T16:29:54;73.83;;;31.53;;
20523;SDS011;10420;48.542;12.270;2023-02-15T16:34:59;74.77;;;28.67;;
20523;SDS011;10420;48.542;12.270;2023-02-15T16:40:02;95.57;;;36.80;;
20523;SDS011;10420;48.542;12.270;2023-02-15T16:45:12;71.90;;;25.90;;
20523;SDS011;10420;48.542;12.270;2023-02-15T16:50:22;82.47;;;26.20;;
20523;SDS011;10420;48.542;12.270;2023-02-15T16:55:27;111.13;;;27.03;;
20523;SDS011;10420;48.542;12.270;2023-02-15T17:00:34;101.23;;;26.83;;
20523;SDS011;10420;48.542;12.270;2023-02-15T17:10:45;115.30;;;26.60;;
20523;SDS011;10420;48.542;12.270;2023-02-15T17:16:20;91.00;;;27.13;;
20523;SDS011;10420;48.542;12.270;2023-02-15T17:21:25;98.33;;;26.17;;
20523;SDS011;10420;48.542;12.270;2023-02-15T17:26:42;85.93;;;26.87;;
20523;SDS011;10420;48.542;12.270;2023-02-15T17:31:44;88.23;;;26.77;;
20523;SDS011;10420;48.542;12.270;2023-02-15T17:36:58;155.40;;;28.07;;
20523;SDS011;10420;48.542;12.270;2023-02-15T17:41:59;91.97;;;26.80;;
20523;SDS011;10420;48.542;12.270;2023-02-15T17:47:00;113.80;;;28.40;;
20523;SDS011;10420;48.542;12.270;2023-02-15T17:52:01;86.30;;;25.03;;
20523;SDS011;10420;48.542;12.270;2023-02-15T17:57:02;95.20;;;23.70;;
20523;SDS011;10420;48.542;12.270;2023-02-15T18:02:07;106.33;;;22.90;;
20523;SDS011;10420;48.542;12.270;2023-02-15T18:07:28;85.13;;;23.53;;
20523;SDS011;10420;48.542;12.270;2023-02-15T18:12:48;98.17;;;41.63;;
20523;SDS011;10420;48.542;12.270;2023-02-15T18:17:49;85.20;;;24.07;;
20523;SDS011;10420;48.542;12.270;2023-02-15T18:22:50;78.70;;;24.83;;
20523;SDS011;10420;48.542;12.270;2023-02-15T18:27:51;92.40;;;23.53;;
20523;SDS011;10420;48.542;12.270;2023-02-15T18:32:52;90.63;;;24.90;;
20523;SDS011;10420;48.542;12.270;2023-02-15T18:37:56;231.00;;;72.00;;
20523;SDS011;10420;48.542;12.270;2023-02-15T18:42:58;111.60;;;26.70;;
20523;SDS011;10420;48.542;12.270;2023-02-15T18:47:58;105.30;;;24.33;;
20523;SDS011;10420;48.542;12.270;2023-02-15T18:52:59;91.23;;;26.57;;
20523;SDS011;10420;48.542;12.270;2023-02-15T18:58:03;87.57;;;25.77;;
20523;SDS011;10420;48.542;12.270;2023-02-15T19:03:03;88.90;;;24.57;;
20523;SDS011;10420;48.542;12.270;2023-02-15T19:08:04;77.47;;;26.43;;
20523;SDS011;10420;48.542;12.270;2023-02-15T19:13:11;93.57;;;25.00;;
20523;SDS011;10420;48.542;12.270;2023-02-15T19:18:13;118.17;;;25.27;;
20523;SDS011;10420;48.542;12.270;2023-02-15T19:23:17;74.73;;;25.23;;
20523;SDS011;10420;48.542;12.270;2023-02-15T19:28:25;79.63;;;24.07;;
20523;SDS011;10420;48.542;12.270;2023-02-15T19:33:29;110.00;;;25.67;;
20523;SDS011;10420;48.542;12.270;2023-02-15T19:38:31;85.13;;;25.50;;
20523;SDS011;10420;48.542;12.270;2023-02-15T19:43:34;82.83;;;24.40;;
20523;SDS011;10420;48.542;12.270;2023-02-15T19:48:35;89.70;;;24.83;;
20523;SDS011;10420;48.542;12.270;2023-02-15T19:53:35;104.30;;;23.93;;
20523;SDS011;10420;48.542;12.270;2023-02-15T19:58:36;74.17;;;24.63;;
20523;SDS011;10420;48.542;12.270;2023-02-15T20:03:36;78.47;;;26.30;;
20523;SDS011;10420;48.542;12.270;2023-02-15T20:08:37;70.63;;;27.53;;
20523;SDS011;10420;48.542;12.270;2023-02-15T20:13:38;76.80;;;27.57;;
20523;SDS011;10420;48.542;12.270;2023-02-15T20:18:39;102.00;;;25.40;;
20523;SDS011;10420;48.542;12.270;2023-02-15T20:23:43;105.73;;;28.93;;
20523;SDS011;10420;48.542;12.270;2023-02-15T20:28:45;72.53;;;24.63;;
20523;SDS011;10420;48.542;12.270;2023-02-15T20:33:47;90.23;;;24.80;;
20523;SDS011;10420;48.542;12.270;2023-02-15T20:38:48;65.93;;;23.57;;
20523;SDS011;10420;48.542;12.270;2023-02-15T20:43:50;83.03;;;23.37;;
20523;SDS011;10420;48.542;12.270;2023-02-15T20:48:50;81.80;;;23.20;;
20523;SDS011;10420;48.542;12.270;2023-02-15T20:53:51;90.40;;;22.93;;
20523;SDS011;10420;48.542;12.270;2023-02-15T20:58:52;70.20;;;25.23;;
20523;SDS011;10420;48.542;12.270;2023-02-15T21:03:53;89.70;;;23.93;;
20523;SDS011;10420;48.542;12.270;2023-02-15T21:08:53;75.27;;;23.83;;
20523;SDS011;10420;48.542;12.270;2023-02-15T21:13:54;68.80;;;22.77;;
20523;SDS011;10420;48.542;12.270;2023-02-15T21:18:54;91.07;;;23.23;;
20523;SDS011;10420;48.542;12.270;2023-02-15T21:23:55;79.33;;;26.13;;
20523;SDS011;10420;48.542;12.270;2023-02-15T21:28:56;71.73;;;24.70;;
20523;SDS011;10420;48.542;12.270;2023-02-15T21:33:56;68.77;;;26.33;;
20523;SDS011;10420;48.542;12.270;2023-02-15T21:38:57;78.77;;;25.40;;
20523;SDS011;10420;48.542;12.270;2023-02-15T21:43:58;65.43;;;23.53;;
20523;SDS011;10420;48.542;12.270;2023-02-15T21:49:17;108.30;;;24.53;;
20523;SDS011;10420;48.542;12.270;2023-02-15T21:54:18;90.83;;;22.63;;
20523;SDS011;10420;48.542;12.270;2023-02-15T21:59:19;64.10;;;24.23;;
20523;SDS011;10420;48.542;12.270;2023-02-15T22:04:21;69.60;;;21.27;;
20523;SDS011;10420;48.542;12.270;2023-02-15T22:09:25;62.90;;;20.87;;
20523;SDS011;10420;48.542;12.270;2023-02-15T22:19:34;47.80;;;20.00;;
20523;SDS011;10420;48.542;12.270;2023-02-15T22:24:35;76.10;;;22.77;;
20523;SDS011;10420;48.542;12.270;2023-02-15T22:29:35;91.37;;;22.33;;
20523;SDS011;10420;48.542;12.270;2023-02-15T22:34:36;76.53;;;20.93;;
20523;SDS011;10420;48.542;12.270;2023-02-15T22:39:37;70.57;;;21.50;;
20523;SDS011;10420;48.542;12.270;2023-02-15T22:44:38;57.47;;;21.33;;
20523;SDS011;10420;48.542;12.270;2023-02-15T22:49:38;73.47;;;22.80;;
20523;SDS011;10420;48.542;12.270;2023-02-15T22:54:39;71.00;;;21.10;;
20523;SDS011;10420;48.542;12.270;2023-02-15T22:59:40;69.07;;;22.63;;
20523;SDS011;10420;48.542;12.270;2023-02-15T23:04:41;94.20;;;24.10;;
20523;SDS011;10420;48.542;12.270;2023-02-15T23:09:42;76.33;;;24.67;;
20523;SDS011;10420;48.542;12.270;2023-02-15T23:14:43;106.20;;;24.37;;
20523;SDS011;10420;48.542;12.270;2023-02-15T23:19:43;66.50;;;22.47;;
20523;SDS011;10420;48.542;12.270;2023-02-15T23:24:49;63.03;;;20.87;;
20523;SDS011;10420;48.542;12.270;2023-02-15T23:29:51;90.83;;;19.90;;
20523;SDS011;10420;48.542;12.270;2023-02-15T23:34:52;70.27;;;19.97;;
20523;SDS011;10420;48.542;12.270;2023-02-15T23:39:52;47.90;;;19.47;;
20523;SDS011;10420;48.542;12.270;2023-02-15T23:45:17;58.67;;;18.07;;
20523;SDS011;10420;48.542;12.270;2023-02-15T23:55:33;48.40;;;17.83;;
